Time;durP1;ratioP1;P1;durP2;ratioP2;P2;SDS_P1;SDS_P2;PMS_P1;PMS_P2;Temp;Humidity;BMP_temperature;BMP_pressure;BME280_temperature;BME280_humidity;BME280_pressure;Samples;Min_cycle;Max_cycle;Signal;HPM_P1;HPM_P2
2022/04/24 00:00:42;;;;;;;16.02;5.57;;;;;;;9.02;63.74;100118.88;2065782;28;20300;-73
2022/04/24 00:01:46;;;;;;;10.38;5.10;;;;;;;9.01;63.76;100111.88;2049396;29;20333;-73
2022/04/24 00:02:51;;;;;;;14.20;5.40;;;;;;;9.01;63.71;100125.28;2051059;28;20283;-73
2022/04/24 00:03:55;;;;;;;12.30;5.68;;;;;;;9.01;64.40;100116.47;2057377;28;20290;-72
2022/04/24 00:04:58;;;;;;;11.38;4.95;;;;;;;9.01;64.33;100117.25;2050750;28;20279;-73
2022/04/24 00:06:01;;;;;;;17.45;5.45;;;;;;;9.00;64.30;100117.53;2058241;28;20301;-73
2022/04/24 00:07:07;;;;;;;13.63;5.32;;;;;;;9.02;64.15;100116.19;2064087;28;20750;-73
2022/04/24 00:08:09;;;;;;;14.80;5.07;;;;;;;9.00;64.17;100118.34;2066430;28;20808;-72
2022/04/24 00:09:11;;;;;;;10.95;5.03;;;;;;;8.99;64.44;100121.31;2049602;28;20306;-73
2022/04/24 00:10:18;;;;;;;10.90;5.03;;;;;;;8.93;64.35;100117.88;2058421;28;20290;-73
2022/04/24 00:11:24;;;;;;;14.73;5.40;;;;;;;8.91;64.46;100114.66;2066549;28;20812;-72
2022/04/24 00:12:28;;;;;;;16.88;5.70;;;;;;;8.90;64.67;100121.09;2058815;28;20293;-72
2022/04/24 00:13:41;;;;;;;15.85;5.10;;;;;;;8.94;64.55;100119.44;2058366;28;20298;-72
2022/04/24 00:14:47;;;;;;;12.35;5.20;;;;;;;8.95;64.80;100115.72;2067215;28;20274;-73
2022/04/24 00:15:49;;;;;;;13.05;5.40;;;;;;;9.00;64.25;100112.97;2071133;28;20291;-72
2022/04/24 00:16:54;;;;;;;12.82;4.97;;;;;;;9.00;64.52;100112.19;2049793;28;20346;-72
2022/04/24 00:18:03;;;;;;;10.63;4.97;;;;;;;9.04;64.64;100114.00;2058424;28;20788;-72
2022/04/24 00:19:15;;;;;;;16.10;5.30;;;;;;;9.02;64.52;100110.84;2057664;28;20298;-73
2022/04/24 00:20:17;;;;;;;12.20;5.43;;;;;;;9.08;64.33;100116.13;2060192;28;20297;-73
2022/04/24 00:21:19;;;;;;;10.27;5.40;;;;;;;9.05;64.76;100121.00;2049461;29;20293;-72
2022/04/24 00:22:24;;;;;;;12.50;5.57;;;;;;;8.98;64.47;100115.13;2049854;28;20822;-73
2022/04/24 00:23:30;;;;;;;11.10;5.70;;;;;;;8.99;64.25;100116.75;2057996;28;20323;-73
2022/04/24 00:24:35;;;;;;;13.35;5.78;;;;;;;9.00;64.63;100118.34;2058314;28;20691;-72
2022/04/24 00:25:42;;;;;;;14.93;6.00;;;;;;;9.02;64.76;100124.25;2050257;28;20290;-73
2022/04/24 00:26:48;;;;;;;14.60;5.30;;;;;;;9.04;64.76;100114.00;2051571;28;20287;-73
2022/04/24 00:27:54;;;;;;;15.20;5.07;;;;;;;9.05;64.39;100114.84;2058528;28;20283;-72
2022/04/24 00:29:02;;;;;;;13.20;5.53;;;;;;;9.09;64.28;100120.44;2058277;28;20298;-71
2022/04/24 00:30:11;;;;;;;15.00;6.05;;;;;;;9.03;64.19;100111.63;2057202;28;20666;-72
2022/04/24 00:31:16;;;;;;;12.75;5.93;;;;;;;9.10;64.51;100114.00;2059524;28;20293;-73
2022/04/24 00:32:20;;;;;;;13.27;5.47;;;;;;;9.03;64.38;100112.41;2065463;28;20289;-71
2022/04/24 00:33:32;;;;;;;15.02;6.43;;;;;;;9.09;64.42;100109.72;2049422;29;20279;-72
2022/04/24 00:34:38;;;;;;;13.40;5.50;;;;;;;9.17;64.67;100112.59;2051029;28;20286;-71
2022/04/24 00:35:40;;;;;;;15.75;5.95;;;;;;;9.23;64.52;100111.47;2050696;28;20297;-70
2022/04/24 00:36:46;;;;;;;12.68;6.47;;;;;;;9.12;64.33;100111.84;2057877;28;20290;-71
2022/04/24 00:37:50;;;;;;;18.08;6.38;;;;;;;9.09;64.61;100109.72;2049524;28;20287;-71
2022/04/24 00:38:55;;;;;;;15.38;6.18;;;;;;;9.07;64.54;100109.97;2057874;28;20286;-72
2022/04/24 00:40:01;;;;;;;11.38;5.80;;;;;;;9.11;64.52;100115.59;2050272;28;20283;-71
2022/04/24 00:41:04;;;;;;;12.32;5.70;;;;;;;9.09;64.43;100115.88;2058080;28;20330;-75
2022/04/24 00:42:12;;;;;;;13.55;6.28;;;;;;;9.10;64.53;100112.09;2035592;29;20288;-67
2022/04/24 00:43:19;;;;;;;12.57;5.93;;;;;;;9.12;64.77;100114.53;2047219;28;20367;-66
2022/04/24 00:44:41;;;;;;;10.93;5.60;;;;;;;9.00;65.23;100120.22;2072976;28;20662;-66
2022/04/24 00:46:18;;;;;;;14.38;5.97;;;;;;;9.05;65.23;100115.63;2071384;28;20299;-66
2022/04/24 00:47:23;;;;;;;14.52;5.85;;;;;;;9.09;64.82;100121.25;2073798;28;20281;-66
2022/04/24 00:48:31;;;;;;;14.70;5.85;;;;;;;9.14;65.06;100117.72;2066333;28;20622;-66
2022/04/24 00:49:33;;;;;;;9.93;5.78;;;;;;;9.21;64.84;100121.69;2065985;28;20669;-66
2022/04/24 00:50:40;;;;;;;15.23;6.40;;;;;;;9.24;64.35;100121.13;2066131;28;20284;-67
2022/04/24 00:51:43;;;;;;;12.75;5.95;;;;;;;9.23;64.82;100113.34;2073146;28;20287;-66
2022/04/24 00:52:48;;;;;;;15.55;6.15;;;;;;;9.22;64.74;100114.44;2073285;28;20304;-66
2022/04/24 00:53:52;;;;;;;13.75;6.22;;;;;;;9.23;64.62;100116.81;2073211;28;20308;-66
2022/04/24 00:54:57;;;;;;;12.45;5.43;;;;;;;9.25;64.35;100111.19;2081487;28;20295;-66
2022/04/24 00:56:01;;;;;;;15.65;6.30;;;;;;;9.17;64.54;100111.78;2080595;28;20292;-67
2022/04/24 00:57:13;;;;;;;14.90;6.25;;;;;;;9.20;65.09;100116.59;2073922;28;20312;-67
2022/04/24 00:58:16;;;;;;;16.90;6.22;;;;;;;9.16;64.29;100120.91;2081550;28;20292;-66
2022/04/24 00:59:21;;;;;;;14.55;5.88;;;;;;;9.08;65.08;100118.81;2065096;28;20665;-66
2022/04/24 01:00:24;;;;;;;12.73;6.50;;;;;;;9.10;64.88;100116.66;2065676;28;20678;-66
2022/04/24 01:01:34;;;;;;;14.15;6.47;;;;;;;9.04;64.81;100118.59;2065644;28;20773;-66
2022/04/24 01:02:38;;;;;;;16.40;6.25;;;;;;;9.09;65.16;100115.09;2049355;28;20065;-67
2022/04/24 01:03:40;;;;;;;14.55;6.50;;;;;;;9.02;65.16;100116.19;2058027;28;20286;-66
2022/04/24 01:04:43;;;;;;;13.95;6.32;;;;;;;8.94;65.22;100118.66;2073012;28;20340;-67
2022/04/24 01:05:47;;;;;;;13.82;6.40;;;;;;;8.94;65.82;100122.13;2057769;28;20305;-67
2022/04/24 01:06:51;;;;;;;13.85;6.20;;;;;;;8.95;65.96;100121.06;2041397;28;20296;-67
2022/04/24 01:07:57;;;;;;;16.70;6.38;;;;;;;8.86;65.34;100116.56;2058435;28;20298;-67
2022/04/24 01:09:23;;;;;;;14.95;6.57;;;;;;;8.81;66.26;100120.06;2065132;28;20881;-67
2022/04/24 01:10:29;;;;;;;11.93;6.10;;;;;;;8.81;65.79;100122.75;2064224;28;20296;-67
2022/04/24 01:11:35;;;;;;;15.35;6.18;;;;;;;8.84;66.29;100119.53;2065540;28;20293;-67
2022/04/24 01:12:40;;;;;;;13.20;6.07;;;;;;;8.83;66.00;100128.66;2072789;28;20304;-67
2022/04/24 01:13:41;;;;;;;14.10;6.13;;;;;;;8.85;66.48;100126.47;2065101;28;20742;-67
2022/04/24 01:14:47;;;;;;;12.57;5.90;;;;;;;8.86;66.16;100133.47;2049530;28;20295;-67
2022/04/24 01:15:54;;;;;;;13.95;6.22;;;;;;;8.88;66.58;100125.94;2050980;28;20783;-67
2022/04/24 01:16:58;;;;;;;12.95;6.10;;;;;;;8.88;66.54;100125.94;2065335;28;20292;-67
2022/04/24 01:18:00;;;;;;;13.57;6.30;;;;;;;8.90;65.73;100122.97;2065114;28;20297;-67
2022/04/24 01:19:08;;;;;;;14.95;6.45;;;;;;;8.99;65.84;100122.13;2057710;28;20294;-67
2022/04/24 01:20:20;;;;;;;13.77;6.38;;;;;;;8.95;65.89;100118.41;2058302;28;20293;-67
2022/04/24 01:21:21;;;;;;;16.75;6.60;;;;;;;9.01;66.17;100119.94;2058161;28;20290;-66
2022/04/24 01:22:27;;;;;;;12.00;5.88;;;;;;;9.01;65.96;100125.28;2065301;28;20301;-66
2022/04/24 01:23:28;;;;;;;14.68;6.38;;;;;;;9.02;65.58;100124.25;2057132;28;20293;-67
2022/04/24 01:24:30;;;;;;;14.52;6.55;;;;;;;9.04;66.20;100124.75;2045191;28;20310;-67
2022/04/24 01:25:32;;;;;;;15.15;6.38;;;;;;;9.07;65.90;100128.75;2055310;28;20774;-66
2022/04/24 01:26:37;;;;;;;12.95;6.07;;;;;;;9.12;65.76;100133.28;2057488;28;20298;-67
2022/04/24 01:27:45;;;;;;;15.88;6.47;;;;;;;9.14;65.21;100139.16;2065374;28;20289;-67
2022/04/24 01:28:51;;;;;;;16.80;6.32;;;;;;;9.15;65.27;100141.59;2065824;28;20289;-67
2022/04/24 01:29:56;;;;;;;12.65;6.43;;;;;;;9.18;65.50;100134.88;2071424;28;20304;-67
2022/04/24 01:30:59;;;;;;;18.40;6.70;;;;;;;9.24;65.52;100139.13;2049289;28;20287;-67
2022/04/24 01:32:02;;;;;;;14.63;6.32;;;;;;;9.21;64.98;100139.66;2049658;28;20355;-68
2022/04/24 01:33:06;;;;;;;17.55;6.65;;;;;;;9.27;65.46;100141.25;2057723;28;20828;-67
2022/04/24 01:34:08;;;;;;;19.05;6.80;;;;;;;9.32;65.22;100127.75;2065581;28;20301;-67
2022/04/24 01:35:13;;;;;;;14.63;6.90;;;;;;;9.38;64.95;100140.06;2072987;28;20289;-67
2022/04/24 01:36:15;;;;;;;14.95;6.65;;;;;;;9.37;65.06;100133.09;2081400;28;20311;-67
2022/04/24 01:37:18;;;;;;;16.77;7.22;;;;;;;9.38;64.52;100129.34;2081117;28;20319;-67
2022/04/24 01:38:23;;;;;;;18.40;7.28;;;;;;;9.33;64.49;100129.38;2072906;28;20300;-67
2022/04/24 01:39:26;;;;;;;14.48;7.07;;;;;;;9.36;64.69;100136.84;2073091;28;20293;-67
2022/04/24 01:40:28;;;;;;;17.75;7.15;;;;;;;9.36;64.55;100136.06;2081073;28;20296;-67
2022/04/24 01:41:32;;;;;;;19.30;6.80;;;;;;;9.37;64.65;100133.09;2064932;28;20804;-67
2022/04/24 01:42:35;;;;;;;12.48;6.45;;;;;;;9.39;65.24;100125.56;2057589;28;20311;-67
2022/04/24 01:43:41;;;;;;;16.80;6.53;;;;;;;9.40;64.37;100121.00;2065707;28;20285;-67
2022/04/24 01:44:46;;;;;;;15.32;6.72;;;;;;;9.47;64.81;100119.59;2056952;28;20351;-67
2022/04/24 01:45:50;;;;;;;14.43;7.47;;;;;;;9.51;64.02;100119.81;2057704;28;20282;-67
2022/04/24 01:46:52;;;;;;;16.38;6.80;;;;;;;9.50;64.69;100116.34;2057045;28;20790;-67
2022/04/24 01:47:57;;;;;;;20.95;7.05;;;;;;;9.44;64.47;100117.47;2057115;28;20282;-67
2022/04/24 01:49:02;;;;;;;16.27;7.38;;;;;;;9.45;64.73;100113.69;2072964;28;20304;-67
2022/04/24 01:50:06;;;;;;;18.73;7.45;;;;;;;9.43;64.48;100115.88;2072983;28;20303;-67
2022/04/24 01:51:12;;;;;;;16.10;6.90;;;;;;;9.44;64.56;100108.63;2049503;28;20299;-67
2022/04/24 01:52:18;;;;;;;17.40;6.80;;;;;;;9.44;64.51;100105.94;2050084;28;20283;-68
2022/04/24 01:53:19;;;;;;;17.70;7.72;;;;;;;9.30;65.20;100113.84;2057409;28;20298;-68
2022/04/24 01:54:29;;;;;;;18.05;7.93;;;;;;;9.19;64.78;100110.44;2041924;28;20309;-68
2022/04/24 01:55:32;;;;;;;15.18;6.97;;;;;;;9.20;64.91;100112.03;2059496;28;20312;-69
2022/04/24 01:56:34;;;;;;;16.13;7.20;;;;;;;9.25;65.27;100113.88;2072918;28;20783;-69
2022/04/24 01:57:36;;;;;;;17.95;8.10;;;;;;;9.27;65.13;100112.53;2064529;28;20831;-69
2022/04/24 01:58:43;;;;;;;14.60;7.03;;;;;;;9.32;65.44;100108.19;2048900;28;20294;-69
2022/04/24 01:59:45;;;;;;;16.60;6.80;;;;;;;9.36;64.98;100112.69;2057185;28;20285;-68
2022/04/24 02:00:49;;;;;;;18.67;7.28;;;;;;;9.37;65.36;100110.84;2049088;28;20287;-68
2022/04/24 02:01:53;;;;;;;19.40;7.20;;;;;;;9.35;64.53;100108.44;2056982;28;20298;-68
2022/04/24 02:02:56;;;;;;;20.83;8.27;;;;;;;9.32;65.11;100109.00;2064804;28;20741;-69
2022/04/24 02:03:58;;;;;;;13.45;6.22;;;;;;;9.25;64.85;100108.50;2064767;28;20305;-68
2022/04/24 02:05:00;;;;;;;20.75;7.35;;;;;;;9.21;65.08;100107.47;2057053;28;20313;-68
2022/04/24 02:06:05;;;;;;;17.63;7.40;;;;;;;9.18;64.99;100100.78;2048872;28;20298;-68
2022/04/24 02:07:08;;;;;;;26.52;7.47;;;;;;;9.24;65.95;100096.19;2058586;28;20718;-68
2022/04/24 02:08:16;;;;;;;16.35;7.45;;;;;;;9.30;64.89;100095.06;2072494;28;20297;-68
2022/04/24 02:09:21;;;;;;;18.35;7.15;;;;;;;9.32;64.90;100087.53;2073414;28;20672;-68
2022/04/24 02:10:25;;;;;;;16.00;7.28;;;;;;;9.37;65.01;100095.53;2072655;28;20292;-68
2022/04/24 02:11:31;;;;;;;17.23;7.25;;;;;;;9.36;64.83;100098.50;2072455;28;20277;-68
2022/04/24 02:12:39;;;;;;;14.98;7.22;;;;;;;9.29;65.12;100099.63;2072830;28;20284;-68
2022/04/24 02:13:45;;;;;;;16.83;7.30;;;;;;;9.28;64.98;100094.53;2065768;28;20282;-68
2022/04/24 02:14:46;;;;;;;16.13;7.25;;;;;;;9.32;65.01;100095.56;2065842;28;20281;-68
2022/04/24 02:15:50;;;;;;;15.45;7.45;;;;;;;9.31;65.01;100091.31;2062308;28;20316;-68
2022/04/24 02:16:54;;;;;;;17.30;7.53;;;;;;;9.31;65.38;100091.31;2049367;28;20310;-68
2022/04/24 02:17:56;;;;;;;18.65;7.90;;;;;;;9.31;65.19;100093.97;2048941;28;20298;-68
2022/04/24 02:18:59;;;;;;;17.25;7.82;;;;;;;9.30;65.08;100084.34;2064593;28;20300;-68
2022/04/24 02:20:06;;;;;;;19.83;7.50;;;;;;;9.28;65.32;100081.94;2056700;28;20770;-68
2022/04/24 02:21:11;;;;;;;15.98;7.65;;;;;;;9.26;65.42;100080.59;2057526;28;20294;-68
2022/04/24 02:22:15;;;;;;;21.27;7.78;;;;;;;9.25;64.91;100084.38;2056256;28;20308;-68
2022/04/24 02:23:19;;;;;;;17.30;7.88;;;;;;;9.31;65.33;100085.13;2049027;28;20683;-68
2022/04/24 02:24:22;;;;;;;16.48;7.78;;;;;;;9.33;65.57;100077.59;2057090;28;20317;-68
2022/04/24 02:25:25;;;;;;;19.17;7.88;;;;;;;9.30;65.35;100078.97;2064573;28;20752;-67
2022/04/24 02:26:27;;;;;;;18.05;7.90;;;;;;;9.31;64.66;100080.56;2062396;28;20290;-68
2022/04/24 02:27:29;;;;;;;18.77;8.05;;;;;;;9.24;65.34;100074.75;2072664;28;20296;-67
2022/04/24 02:28:33;;;;;;;15.35;7.45;;;;;;;9.15;65.03;100071.84;2072766;28;20634;-68
2022/04/24 02:29:36;;;;;;;18.77;7.32;;;;;;;9.08;65.58;100070.56;2055633;28;20678;-67
2022/04/24 02:30:43;;;;;;;24.15;8.32;;;;;;;9.05;65.75;100067.38;2050482;28;20302;-68
2022/04/24 02:31:47;;;;;;;20.15;7.38;;;;;;;9.10;66.13;100074.56;2057451;28;20449;-67
2022/04/24 02:32:54;;;;;;;21.95;7.75;;;;;;;9.19;65.63;100069.41;2057254;28;20294;-68
2022/04/24 02:33:58;;;;;;;17.55;7.28;;;;;;;9.23;65.44;100068.53;2050764;28;20843;-68
2022/04/24 02:35:01;;;;;;;19.65;7.95;;;;;;;9.26;65.66;100062.63;2057506;28;20294;-68
2022/04/24 02:36:04;;;;;;;19.10;7.75;;;;;;;9.21;65.46;100069.94;2072864;28;20327;-68
2022/04/24 02:37:09;;;;;;;20.27;8.10;;;;;;;9.11;65.86;100070.00;2080129;28;20820;-68
2022/04/24 02:38:15;;;;;;;17.48;7.38;;;;;;;9.12;65.70;100068.94;2072233;28;20300;-68
2022/04/24 02:39:20;;;;;;;18.85;7.55;;;;;;;9.17;65.71;100066.19;2071954;28;20289;-68
2022/04/24 02:40:27;;;;;;;19.13;7.88;;;;;;;9.24;66.00;100064.00;2066282;28;20290;-68
2022/04/24 02:41:33;;;;;;;19.13;7.85;;;;;;;9.22;65.90;100058.09;2064613;28;20038;-68
2022/04/24 02:42:37;;;;;;;16.50;7.25;;;;;;;9.22;66.00;100066.16;2057679;28;20305;-68
2022/04/24 02:43:44;;;;;;;19.35;7.72;;;;;;;9.19;65.59;100062.16;2057219;28;20289;-68
2022/04/24 02:44:49;;;;;;;17.85;7.72;;;;;;;9.22;65.85;100061.59;2065995;28;20284;-68
2022/04/24 02:45:54;;;;;;;17.15;7.20;;;;;;;9.24;65.92;100064.81;2072196;28;20046;-68
2022/04/24 02:46:57;;;;;;;18.30;7.05;;;;;;;9.25;65.21;100062.91;2072249;28;20281;-68
2022/04/24 02:48:04;;;;;;;15.57;7.20;;;;;;;9.29;65.59;100061.25;2064327;28;20811;-68
2022/04/24 02:49:11;;;;;;;20.67;7.25;;;;;;;9.36;65.60;100055.56;2065580;28;20282;-68
2022/04/24 02:50:15;;;;;;;18.92;7.53;;;;;;;9.37;65.57;100057.97;2071804;28;20300;-68
2022/04/24 02:51:19;;;;;;;14.85;6.88;;;;;;;9.38;65.14;100058.78;2064602;28;20294;-68
2022/04/24 02:52:26;;;;;;;18.98;7.05;;;;;;;9.37;65.34;100066.03;2052408;28;20321;-74
2022/04/24 02:53:30;;;;;;;14.35;6.57;;;;;;;9.39;65.26;100055.00;2057128;28;20306;-72
2022/04/24 02:54:35;;;;;;;13.52;6.20;;;;;;;9.41;65.47;100059.00;2050488;28;20767;-80
2022/04/24 02:55:39;;;;;;;15.27;6.68;;;;;;;9.44;65.37;100054.97;2049126;28;20290;-76
2022/04/24 02:56:44;;;;;;;16.85;6.82;;;;;;;9.47;64.95;100055.19;2049663;28;20283;-75
2022/04/24 02:57:50;;;;;;;15.20;6.75;;;;;;;9.43;65.25;100046.13;2065144;28;20293;-77
2022/04/24 02:58:55;;;;;;;18.00;6.75;;;;;;;9.40;64.72;100054.72;2064316;28;20281;-75
2022/04/24 03:00:00;;;;;;;17.77;7.20;;;;;;;9.37;65.14;100049.94;2064622;28;20302;-76
2022/04/24 03:01:03;;;;;;;15.13;6.90;;;;;;;9.37;65.21;100049.13;2071313;28;20327;-75
2022/04/24 03:02:06;;;;;;;11.95;6.22;;;;;;;9.35;65.14;100046.72;2064740;28;20301;-75
2022/04/24 03:03:12;;;;;;;14.90;7.40;;;;;;;9.34;65.53;100042.44;2056741;28;20278;-75
2022/04/24 03:04:19;;;;;;;12.95;5.95;;;;;;;9.26;65.10;100035.00;2040893;29;20303;-76
2022/04/24 03:05:25;;;;;;;15.57;6.22;;;;;;;9.29;65.33;100039.81;2050709;28;20666;-75
2022/04/24 03:06:34;;;;;;;12.57;6.00;;;;;;;9.26;65.19;100041.16;2056232;28;20286;-74
2022/04/24 03:07:40;;;;;;;15.60;6.65;;;;;;;9.25;65.49;100039.56;2057804;28;20298;-75
2022/04/24 03:08:42;;;;;;;16.52;6.85;;;;;;;9.25;65.59;100036.09;2055730;28;20305;-76
2022/04/24 03:09:44;;;;;;;17.33;7.00;;;;;;;9.22;65.21;100033.97;2049115;28;20279;-77
2022/04/24 03:10:51;;;;;;;13.82;6.15;;;;;;;9.26;65.49;100024.25;2032974;29;20300;-77
2022/04/24 03:11:59;;;;;;;11.57;5.63;;;;;;;9.34;65.31;100030.91;2044888;28;20291;-73
2022/04/24 03:13:02;;;;;;;12.52;5.70;;;;;;;9.34;65.41;100020.97;2072110;28;20293;-76
2022/04/24 03:14:08;;;;;;;14.52;6.53;;;;;;;9.36;65.18;100032.22;2073056;28;20652;-76
2022/04/24 03:15:15;;;;;;;13.63;6.28;;;;;;;9.27;65.44;100029.38;2074340;28;20304;-76
2022/04/24 03:16:20;;;;;;;13.73;6.13;;;;;;;9.28;65.55;100027.47;2050910;28;20723;-77
2022/04/24 03:17:21;;;;;;;13.38;5.63;;;;;;;9.30;65.32;100030.69;2056867;28;20043;-77
2022/04/24 03:18:24;;;;;;;12.43;6.10;;;;;;;9.33;65.42;100018.56;2056412;28;20654;-77
2022/04/24 03:19:26;;;;;;;11.15;5.47;;;;;;;9.30;65.26;100030.69;2048851;28;20299;-77
2022/04/24 03:20:33;;;;;;;11.93;5.38;;;;;;;9.30;65.00;100025.31;2058067;28;20297;-75
2022/04/24 03:21:40;;;;;;;13.48;5.78;;;;;;;9.32;65.62;100025.81;2059069;28;20366;-77
2022/04/24 03:22:48;;;;;;;16.40;5.97;;;;;;;9.32;65.35;100019.66;2059522;28;20042;-68
2022/04/24 03:23:53;;;;;;;15.10;6.47;;;;;;;9.26;65.12;100026.94;2058260;28;20293;-68
2022/04/24 03:24:54;;;;;;;15.00;6.07;;;;;;;9.24;64.91;100021.09;2049774;29;20287;-68
2022/04/24 03:26:02;;;;;;;11.18;5.80;;;;;;;9.28;65.07;100022.13;2050106;28;20306;-68
2022/04/24 03:27:07;;;;;;;9.73;5.32;;;;;;;9.35;65.46;100017.22;2058720;28;20293;-68
2022/04/24 03:28:11;;;;;;;12.68;5.85;;;;;;;9.31;65.05;100018.06;2058393;28;20289;-68
2022/04/24 03:29:13;;;;;;;14.15;5.72;;;;;;;9.31;65.19;100018.88;2057749;28;20286;-68
2022/04/24 03:30:16;;;;;;;11.15;5.47;;;;;;;9.26;64.96;100011.66;2065885;28;20662;-67
2022/04/24 03:31:30;;;;;;;13.10;5.85;;;;;;;9.27;64.90;100020.53;2065488;28;20288;-68
2022/04/24 03:32:36;;;;;;;11.35;5.38;;;;;;;9.22;65.69;100020.56;2065960;28;20296;-68
2022/04/24 03:33:37;;;;;;;12.90;5.90;;;;;;;9.16;65.17;100019.00;2065836;28;20630;-68
2022/04/24 03:34:39;;;;;;;10.27;5.60;;;;;;;9.08;65.39;100022.28;2058121;28;20301;-68
2022/04/24 03:35:41;;;;;;;12.80;5.55;;;;;;;9.14;65.09;100008.56;2057967;28;20298;-67
2022/04/24 03:36:53;;;;;;;12.15;5.55;;;;;;;9.18;65.83;100008.81;2059107;28;20297;-68
2022/04/24 03:37:56;;;;;;;12.98;5.43;;;;;;;9.15;65.11;100015.53;2058596;28;20286;-68
2022/04/24 03:39:03;;;;;;;12.93;5.47;;;;;;;9.23;65.91;100016.78;2049577;28;20290;-67
2022/04/24 03:40:08;;;;;;;11.63;6.03;;;;;;;9.18;65.20;100014.97;2044100;28;20283;-67
2022/04/24 03:41:11;;;;;;;13.40;6.22;;;;;;;9.09;65.73;100013.16;2050573;28;20291;-74
2022/04/24 03:42:18;;;;;;;12.70;5.40;;;;;;;9.10;65.55;100009.41;2065511;28;20282;-77
2022/04/24 03:43:25;;;;;;;9.88;5.57;;;;;;;9.11;65.32;100016.34;2057831;28;20286;-77
2022/04/24 03:44:32;;;;;;;12.10;5.53;;;;;;;9.16;65.06;100013.63;2059554;28;20289;-76
2022/04/24 03:45:36;;;;;;;13.68;6.03;;;;;;;9.18;65.03;100017.66;2066248;28;20281;-77
2022/04/24 03:46:38;;;;;;;12.18;5.40;;;;;;;9.25;65.36;100017.31;2065812;28;20768;-76
2022/04/24 03:47:40;;;;;;;12.73;5.43;;;;;;;9.26;65.37;100010.84;2073998;28;20285;-77
2022/04/24 03:48:46;;;;;;;14.73;5.90;;;;;;;9.26;65.68;100019.69;2063416;28;20297;-77
2022/04/24 03:49:50;;;;;;;10.57;5.65;;;;;;;9.31;65.05;100010.81;2058135;28;20309;-79
2022/04/24 03:50:52;;;;;;;15.57;5.80;;;;;;;9.33;65.37;100014.03;2058281;28;20289;-75
2022/04/24 03:51:56;;;;;;;13.80;5.43;;;;;;;9.32;64.73;100016.97;2070228;28;20296;-75
2022/04/24 03:53:00;;;;;;;11.95;5.70;;;;;;;9.35;65.13;100011.84;2066343;28;20292;-75
2022/04/24 03:54:06;;;;;;;12.40;5.43;;;;;;;9.37;64.35;100009.69;2065464;28;20313;-75
2022/04/24 03:55:08;;;;;;;11.13;5.38;;;;;;;9.39;64.84;100007.50;2058010;28;20290;-77
2022/04/24 03:56:10;;;;;;;12.77;5.70;;;;;;;9.41;64.91;100015.28;2058687;28;20282;-77
2022/04/24 03:57:14;;;;;;;12.68;5.38;;;;;;;9.44;64.67;100009.34;2066177;28;20300;-76
2022/04/24 03:58:16;;;;;;;15.10;5.70;;;;;;;9.42;64.05;100012.31;2073638;28;20291;-75
2022/04/24 03:59:23;;;;;;;9.88;5.18;;;;;;;9.41;64.55;100008.03;2074302;28;20292;-75
2022/04/24 04:00:27;;;;;;;11.35;5.25;;;;;;;9.45;64.18;100010.94;2065639;28;20305;-76
2022/04/24 04:01:32;;;;;;;13.30;5.55;;;;;;;9.52;64.57;100008.75;2058365;28;20290;-77
2022/04/24 04:02:47;;;;;;;9.10;4.82;;;;;;;9.55;63.95;100004.66;2066305;28;20285;-79
2022/04/24 04:03:52;;;;;;;14.45;5.68;;;;;;;9.57;64.10;100005.97;2067771;28;20297;-77
2022/04/24 04:05:03;;;;;;;10.00;5.25;;;;;;;9.61;64.23;100006.22;2058404;28;20278;-77
2022/04/24 04:06:07;;;;;;;11.45;5.32;;;;;;;9.64;64.30;100005.63;2061115;28;20302;-78
2022/04/24 04:07:12;;;;;;;9.80;5.03;;;;;;;9.69;63.65;100005.59;2057355;28;20282;-77
2022/04/24 04:08:18;;;;;;;11.75;5.50;;;;;;;9.73;63.83;100003.94;2057469;28;20809;-76
2022/04/24 04:09:24;;;;;;;11.48;4.93;;;;;;;9.71;63.58;100008.81;2058604;28;20820;-75
2022/04/24 04:10:26;;;;;;;9.68;4.93;;;;;;;9.72;64.03;100008.50;2065781;28;20792;-75
2022/04/24 04:11:28;;;;;;;11.57;5.43;;;;;;;9.75;63.97;100010.63;2057615;28;20802;-75
2022/04/24 04:12:35;;;;;;;13.07;5.18;;;;;;;9.84;64.16;100018.84;2057707;28;20297;-75
2022/04/24 04:13:42;;;;;;;12.73;5.50;;;;;;;9.97;63.68;100014.66;2058085;28;20287;-74
2022/04/24 04:14:51;;;;;;;11.63;5.63;;;;;;;10.02;63.60;100016.47;2037431;29;20296;-74
2022/04/24 04:15:59;;;;;;;10.90;5.25;;;;;;;9.92;62.96;100014.72;2053054;28;20283;-76
2022/04/24 04:17:06;;;;;;;14.27;5.43;;;;;;;9.90;63.12;100012.31;2065470;28;20638;-75
2022/04/24 04:18:11;;;;;;;11.70;5.10;;;;;;;9.90;62.88;100023.06;2058499;28;20654;-75
2022/04/24 04:19:13;;;;;;;13.10;4.90;;;;;;;9.93;63.74;100022.50;2065739;28;20296;-81
2022/04/24 04:20:16;;;;;;;11.68;5.28;;;;;;;9.93;63.83;100022.50;2064721;28;20300;-75
2022/04/24 04:21:19;;;;;;;11.40;5.45;;;;;;;9.88;63.06;100027.13;2064439;28;20292;-75
2022/04/24 04:22:26;;;;;;;13.15;5.57;;;;;;;9.83;63.36;100037.91;2064255;28;20294;-76
2022/04/24 04:23:30;;;;;;;11.57;5.53;;;;;;;9.81;63.73;100035.53;2049612;28;20298;-75
2022/04/24 04:24:32;;;;;;;11.27;5.40;;;;;;;9.76;63.76;100027.53;2056656;28;20299;-77
2022/04/24 04:25:40;;;;;;;13.63;5.72;;;;;;;9.72;64.28;100037.22;2055993;28;20298;-76
2022/04/24 04:26:45;;;;;;;12.65;6.10;;;;;;;9.64;64.03;100029.78;2057438;28;20297;-77
2022/04/24 04:27:54;;;;;;;12.07;5.80;;;;;;;9.59;64.54;100032.56;2064090;28;20301;-76
2022/04/24 04:28:57;;;;;;;13.23;6.30;;;;;;;9.59;65.01;100033.34;2064748;28;20293;-75
2022/04/24 04:30:03;;;;;;;14.85;6.82;;;;;;;9.61;64.54;100036.53;2071421;28;20054;-77
2022/04/24 04:31:08;;;;;;;16.73;6.70;;;;;;;9.68;64.80;100037.00;2072371;28;20289;-78
2022/04/24 04:32:13;;;;;;;18.70;7.13;;;;;;;9.70;64.62;100034.03;2055731;28;20297;-78
2022/04/24 04:33:18;;;;;;;16.80;6.78;;;;;;;9.75;64.77;100034.78;2051045;28;20298;-78
2022/04/24 04:34:20;;;;;;;17.70;7.18;;;;;;;9.78;64.87;100036.09;2072057;28;20305;-77
2022/04/24 04:35:23;;;;;;;16.73;7.38;;;;;;;9.81;65.04;100035.53;2056386;28;20635;-78
2022/04/24 04:36:26;;;;;;;14.20;7.22;;;;;;;9.87;64.76;100034.38;2049002;28;20291;-77
2022/04/24 04:37:31;;;;;;;17.42;6.68;;;;;;;9.84;64.56;100042.22;2048496;28;20991;-77
2022/04/24 04:38:36;;;;;;;15.55;6.88;;;;;;;9.78;64.28;100030.72;2049944;28;20301;-77
2022/04/24 04:39:41;;;;;;;18.65;6.90;;;;;;;9.76;64.62;100035.56;2064211;28;20289;-78
2022/04/24 04:40:47;;;;;;;17.67;7.03;;;;;;;9.77;64.51;100037.16;2059136;28;20377;-75
2022/04/24 04:41:49;;;;;;;16.95;6.85;;;;;;;9.73;64.80;100025.41;2064500;28;20786;-76
2022/04/24 04:42:53;;;;;;;14.15;6.53;;;;;;;9.73;64.80;100030.78;2064086;28;20285;-68
2022/04/24 04:44:00;;;;;;;14.90;6.22;;;;;;;9.61;64.70;100025.78;2064147;28;20289;-68
2022/04/24 04:45:06;;;;;;;14.45;5.97;;;;;;;9.66;64.65;100030.31;2047902;28;20291;-67
2022/04/24 04:46:11;;;;;;;13.48;5.80;;;;;;;9.67;64.95;100026.53;2042175;28;20310;-68
2022/04/24 04:47:17;;;;;;;13.77;5.20;;;;;;;9.69;65.31;100022.50;2063863;28;20293;-68
2022/04/24 04:48:22;;;;;;;13.02;6.32;;;;;;;9.69;65.18;100027.06;2070154;28;20918;-68
2022/04/24 04:49:28;;;;;;;14.30;5.82;;;;;;;9.71;64.97;100024.91;2063983;28;20294;-68
2022/04/24 04:50:32;;;;;;;13.23;5.20;;;;;;;9.74;64.91;100029.69;2063932;28;20282;-68
2022/04/24 04:51:36;;;;;;;12.27;5.30;;;;;;;9.82;64.86;100026.38;2063977;28;20284;-67
2022/04/24 04:52:43;;;;;;;11.85;5.15;;;;;;;9.86;64.72;100026.59;2060286;28;20301;-68
2022/04/24 04:53:46;;;;;;;12.80;5.35;;;;;;;9.85;64.84;100016.94;2063374;28;20278;-68
2022/04/24 04:54:52;;;;;;;12.30;5.15;;;;;;;9.93;64.96;100027.88;2072384;28;20277;-68
2022/04/24 04:55:55;;;;;;;10.63;5.47;;;;;;;10.03;64.80;100023.47;2071269;28;20295;-68
2022/04/24 04:57:01;;;;;;;12.07;5.13;;;;;;;10.02;64.71;100028.00;2072161;28;20293;-67
2022/04/24 04:58:04;;;;;;;11.88;5.00;;;;;;;10.02;64.30;100029.91;2064125;28;20661;-68
2022/04/24 04:59:07;;;;;;;12.68;5.18;;;;;;;10.06;64.39;100025.56;2063890;28;20297;-68
2022/04/24 05:00:13;;;;;;;13.90;5.40;;;;;;;10.23;64.71;100028.56;2063524;28;20289;-68
2022/04/24 05:01:15;;;;;;;11.77;5.30;;;;;;;10.46;63.91;100031.50;2056643;28;20297;-67
2022/04/24 05:02:24;;;;;;;12.73;5.68;;;;;;;10.56;63.37;100034.88;2056372;28;20290;-68